sensor_id;sensor_type;location;lat;lon;timestamp;temperature;humidity
60234;DHT22;49514;43.538;-5.708;2024-03-08T00:00:06;11.20;94.80
60234;DHT22;49514;43.538;-5.708;2024-03-08T00:02:41;11.20;94.70
60234;DHT22;49514;43.538;-5.708;2024-03-08T00:05:08;11.20;94.50
60234;DHT22;49514;43.538;-5.708;2024-03-08T00:07:35;11.20;94.10
60234;DHT22;49514;43.538;-5.708;2024-03-08T00:10:02;11.20;94.00
60234;DHT22;49514;43.538;-5.708;2024-03-08T00:12:29;11.30;93.90
60234;DHT22;49514;43.538;-5.708;2024-03-08T00:14:56;11.30;93.50
60234;DHT22;49514;43.538;-5.708;2024-03-08T00:17:23;11.30;92.70
60234;DHT22;49514;43.538;-5.708;2024-03-08T00:19:49;11.30;92.10
60234;DHT22;49514;43.538;-5.708;2024-03-08T00:22:16;11.40;91.60
60234;DHT22;49514;43.538;-5.708;2024-03-08T00:24:43;11.40;91.40
60234;DHT22;49514;43.538;-5.708;2024-03-08T00:27:09;11.40;91.10
60234;DHT22;49514;43.538;-5.708;2024-03-08T00:29:37;11.50;90.90
60234;DHT22;49514;43.538;-5.708;2024-03-08T00:32:05;11.60;90.80
60234;DHT22;49514;43.538;-5.708;2024-03-08T00:34:31;11.60;90.50
60234;DHT22;49514;43.538;-5.708;2024-03-08T00:36:57;11.60;90.70
60234;DHT22;49514;43.538;-5.708;2024-03-08T00:39:24;11.60;90.50
60234;DHT22;49514;43.538;-5.708;2024-03-08T00:41:51;11.60;90.90
60234;DHT22;49514;43.538;-5.708;2024-03-08T00:44:18;11.60;91.00
60234;DHT22;49514;43.538;-5.708;2024-03-08T00:46:44;11.60;90.60
60234;DHT22;49514;43.538;-5.708;2024-03-08T00:49:11;11.60;90.80
60234;DHT22;49514;43.538;-5.708;2024-03-08T00:51:38;11.60;90.70
60234;DHT22;49514;43.538;-5.708;2024-03-08T00:54:05;11.60;90.90
60234;DHT22;49514;43.538;-5.708;2024-03-08T00:56:31;11.60;90.60
60234;DHT22;49514;43.538;-5.708;2024-03-08T00:58:57;11.60;90.30
60234;DHT22;49514;43.538;-5.708;2024-03-08T01:01:25;11.60;90.40
60234;DHT22;49514;43.538;-5.708;2024-03-08T01:03:52;11.60;90.60
60234;DHT22;49514;43.538;-5.708;2024-03-08T01:06:18;11.60;90.40
60234;DHT22;49514;43.538;-5.708;2024-03-08T01:08:45;11.50;90.40
60234;DHT22;49514;43.538;-5.708;2024-03-08T01:11:14;11.40;90.80
60234;DHT22;49514;43.538;-5.708;2024-03-08T01:13:41;11.40;90.70
60234;DHT22;49514;43.538;-5.708;2024-03-08T01:16:07;11.40;90.20
60234;DHT22;49514;43.538;-5.708;2024-03-08T01:18:34;11.30;89.70
60234;DHT22;49514;43.538;-5.708;2024-03-08T01:21:00;11.30;89.50
60234;DHT22;49514;43.538;-5.708;2024-03-08T01:23:26;11.20;89.60
60234;DHT22;49514;43.538;-5.708;2024-03-08T01:25:53;11.20;89.60
60234;DHT22;49514;43.538;-5.708;2024-03-08T01:28:23;11.10;90.20
60234;DHT22;49514;43.538;-5.708;2024-03-08T01:30:50;11.00;90.90
60234;DHT22;49514;43.538;-5.708;2024-03-08T01:33:22;10.90;91.20
60234;DHT22;49514;43.538;-5.708;2024-03-08T01:35:49;10.80;91.70
60234;DHT22;49514;43.538;-5.708;2024-03-08T01:38:15;10.70;91.90
60234;DHT22;49514;43.538;-5.708;2024-03-08T01:40:41;10.70;92.10
60234;DHT22;49514;43.538;-5.708;2024-03-08T01:43:17;10.60;92.20
60234;DHT22;49514;43.538;-5.708;2024-03-08T01:45:44;10.50;92.30
60234;DHT22;49514;43.538;-5.708;2024-03-08T01:48:10;10.50;92.30
60234;DHT22;49514;43.538;-5.708;2024-03-08T01:50:38;10.60;92.60
60234;DHT22;49514;43.538;-5.708;2024-03-08T01:53:05;10.60;92.90
60234;DHT22;49514;43.538;-5.708;2024-03-08T01:55:32;10.60;92.80
60234;DHT22;49514;43.538;-5.708;2024-03-08T01:58:03;10.50;93.00
60234;DHT22;49514;43.538;-5.708;2024-03-08T02:00:31;10.50;92.90
60234;DHT22;49514;43.538;-5.708;2024-03-08T02:02:59;10.50;93.20
60234;DHT22;49514;43.538;-5.708;2024-03-08T02:05:25;10.50;93.30
60234;DHT22;49514;43.538;-5.708;2024-03-08T02:07:52;10.40;93.50
60234;DHT22;49514;43.538;-5.708;2024-03-08T02:10:18;10.30;93.80
60234;DHT22;49514;43.538;-5.708;2024-03-08T02:12:46;10.30;94.40
60234;DHT22;49514;43.538;-5.708;2024-03-08T02:15:12;10.20;95.00
60234;DHT22;49514;43.538;-5.708;2024-03-08T02:17:39;10.10;95.30
60234;DHT22;49514;43.538;-5.708;2024-03-08T02:20:05;10.10;95.30
60234;DHT22;49514;43.538;-5.708;2024-03-08T02:22:32;10.10;95.40
60234;DHT22;49514;43.538;-5.708;2024-03-08T02:24:58;10.00;96.00
60234;DHT22;49514;43.538;-5.708;2024-03-08T02:27:27;9.90;95.90
60234;DHT22;49514;43.538;-5.708;2024-03-08T02:29:56;9.90;96.10
60234;DHT22;49514;43.538;-5.708;2024-03-08T02:32:23;9.90;95.90
60234;DHT22;49514;43.538;-5.708;2024-03-08T02:34:50;9.90;95.70
60234;DHT22;49514;43.538;-5.708;2024-03-08T02:37:16;9.80;96.00
60234;DHT22;49514;43.538;-5.708;2024-03-08T02:39:43;9.80;95.90
60234;DHT22;49514;43.538;-5.708;2024-03-08T02:42:09;9.80;95.70
60234;DHT22;49514;43.538;-5.708;2024-03-08T02:44:36;9.80;95.00
60234;DHT22;49514;43.538;-5.708;2024-03-08T02:47:03;9.80;94.80
60234;DHT22;49514;43.538;-5.708;2024-03-08T02:49:30;9.90;94.80
60234;DHT22;49514;43.538;-5.708;2024-03-08T02:51:58;9.80;94.60
60234;DHT22;49514;43.538;-5.708;2024-03-08T02:54:24;9.80;94.70
60234;DHT22;49514;43.538;-5.708;2024-03-08T02:56:51;9.80;94.40
60234;DHT22;49514;43.538;-5.708;2024-03-08T02:59:17;9.80;94.40
60234;DHT22;49514;43.538;-5.708;2024-03-08T03:01:44;9.70;94.30
60234;DHT22;49514;43.538;-5.708;2024-03-08T03:04:11;9.70;94.10
60234;DHT22;49514;43.538;-5.708;2024-03-08T03:06:38;9.70;94.30
60234;DHT22;49514;43.538;-5.708;2024-03-08T03:09:04;9.70;94.20
60234;DHT22;49514;43.538;-5.708;2024-03-08T03:11:33;9.70;94.40
60234;DHT22;49514;43.538;-5.708;2024-03-08T03:13:59;9.70;94.70
60234;DHT22;49514;43.538;-5.708;2024-03-08T03:16:26;9.70;94.50
60234;DHT22;49514;43.538;-5.708;2024-03-08T03:18:52;9.70;94.50
60234;DHT22;49514;43.538;-5.708;2024-03-08T03:21:18;9.60;94.40
60234;DHT22;49514;43.538;-5.708;2024-03-08T03:23:45;9.60;94.20
60234;DHT22;49514;43.538;-5.708;2024-03-08T03:26:11;9.60;94.20
60234;DHT22;49514;43.538;-5.708;2024-03-08T03:28:38;9.60;94.00
60234;DHT22;49514;43.538;-5.708;2024-03-08T03:31:06;9.50;93.50
60234;DHT22;49514;43.538;-5.708;2024-03-08T03:33:33;9.40;94.30
60234;DHT22;49514;43.538;-5.708;2024-03-08T03:36:03;9.30;94.20
60234;DHT22;49514;43.538;-5.708;2024-03-08T03:38:31;9.20;95.90
60234;DHT22;49514;43.538;-5.708;2024-03-08T03:40:57;9.10;96.20
60234;DHT22;49514;43.538;-5.708;2024-03-08T03:43:30;9.00;96.00
60234;DHT22;49514;43.538;-5.708;2024-03-08T03:45:56;8.90;97.10
60234;DHT22;49514;43.538;-5.708;2024-03-08T03:48:23;8.80;98.50
60234;DHT22;49514;43.538;-5.708;2024-03-08T03:50:49;8.70;97.10
60234;DHT22;49514;43.538;-5.708;2024-03-08T03:53:16;8.60;97.20
60234;DHT22;49514;43.538;-5.708;2024-03-08T03:55:42;8.50;97.30
60234;DHT22;49514;43.538;-5.708;2024-03-08T03:58:09;8.40;98.00
60234;DHT22;49514;43.538;-5.708;2024-03-08T04:00:38;8.30;98.70
60234;DHT22;49514;43.538;-5.708;2024-03-08T04:03:04;8.20;99.30
60234;DHT22;49514;43.538;-5.708;2024-03-08T04:05:31;8.10;99.90
60234;DHT22;49514;43.538;-5.708;2024-03-08T04:07:57;8.00;99.90
60234;DHT22;49514;43.538;-5.708;2024-03-08T04:10:24;8.00;99.90
60234;DHT22;49514;43.538;-5.708;2024-03-08T04:12:50;8.00;99.90
60234;DHT22;49514;43.538;-5.708;2024-03-08T04:15:16;7.90;99.90
60234;DHT22;49514;43.538;-5.708;2024-03-08T04:17:43;7.80;99.90
60234;DHT22;49514;43.538;-5.708;2024-03-08T04:20:11;7.80;99.90
60234;DHT22;49514;43.538;-5.708;2024-03-08T04:22:40;7.70;99.90
60234;DHT22;49514;43.538;-5.708;2024-03-08T04:25:07;7.70;99.90
60234;DHT22;49514;43.538;-5.708;2024-03-08T04:27:33;7.70;99.90
60234;DHT22;49514;43.538;-5.708;2024-03-08T04:30:00;7.60;99.90
60234;DHT22;49514;43.538;-5.708;2024-03-08T04:32:27;7.60;99.90
60234;DHT22;49514;43.538;-5.708;2024-03-08T04:34:55;7.60;99.90
60234;DHT22;49514;43.538;-5.708;2024-03-08T04:37:22;7.50;99.90
60234;DHT22;49514;43.538;-5.708;2024-03-08T04:39:49;7.50;99.90
60234;DHT22;49514;43.538;-5.708;2024-03-08T04:42:15;7.40;99.90
60234;DHT22;49514;43.538;-5.708;2024-03-08T04:44:44;7.30;99.90
60234;DHT22;49514;43.538;-5.708;2024-03-08T04:47:10;7.30;99.90
60234;DHT22;49514;43.538;-5.708;2024-03-08T04:49:37;7.20;99.90
60234;DHT22;49514;43.538;-5.708;2024-03-08T04:52:03;7.20;99.90
60234;DHT22;49514;43.538;-5.708;2024-03-08T04:54:30;7.10;99.90
60234;DHT22;49514;43.538;-5.708;2024-03-08T04:56:57;7.10;99.90
60234;DHT22;49514;43.538;-5.708;2024-03-08T04:59:23;7.00;99.90
60234;DHT22;49514;43.538;-5.708;2024-03-08T05:01:50;7.00;99.90
60234;DHT22;49514;43.538;-5.708;2024-03-08T05:04:17;7.00;99.90
60234;DHT22;49514;43.538;-5.708;2024-03-08T05:06:43;7.00;99.90
60234;DHT22;49514;43.538;-5.708;2024-03-08T05:09:10;7.10;99.90
60234;DHT22;49514;43.538;-5.708;2024-03-08T05:11:43;7.10;99.90
60234;DHT22;49514;43.538;-5.708;2024-03-08T05:14:10;7.20;99.90
60234;DHT22;49514;43.538;-5.708;2024-03-08T05:16:36;7.30;99.90
60234;DHT22;49514;43.538;-5.708;2024-03-08T05:19:03;7.30;99.90
60234;DHT22;49514;43.538;-5.708;2024-03-08T05:21:29;7.40;99.90
60234;DHT22;49514;43.538;-5.708;2024-03-08T05:23:56;7.40;99.90
60234;DHT22;49514;43.538;-5.708;2024-03-08T05:26:22;7.40;99.90
60234;DHT22;49514;43.538;-5.708;2024-03-08T05:28:48;7.40;99.90
60234;DHT22;49514;43.538;-5.708;2024-03-08T05:31:21;7.40;99.90
60234;DHT22;49514;43.538;-5.708;2024-03-08T05:33:50;7.40;99.90
60234;DHT22;49514;43.538;-5.708;2024-03-08T05:36:17;7.30;99.90
60234;DHT22;49514;43.538;-5.708;2024-03-08T05:38:43;7.30;99.90
60234;DHT22;49514;43.538;-5.708;2024-03-08T05:41:10;7.40;99.90
60234;DHT22;49514;43.538;-5.708;2024-03-08T05:43:38;7.40;99.90
60234;DHT22;49514;43.538;-5.708;2024-03-08T05:46:05;7.40;99.90
60234;DHT22;49514;43.538;-5.708;2024-03-08T05:48:31;7.40;99.90
60234;DHT22;49514;43.538;-5.708;2024-03-08T05:51:00;7.40;99.90
60234;DHT22;49514;43.538;-5.708;2024-03-08T05:53:28;7.40;99.90
60234;DHT22;49514;43.538;-5.708;2024-03-08T05:55:57;7.30;99.90
60234;DHT22;49514;43.538;-5.708;2024-03-08T05:58:24;7.30;99.90
60234;DHT22;49514;43.538;-5.708;2024-03-08T06:00:51;7.20;99.90
60234;DHT22;49514;43.538;-5.708;2024-03-08T06:03:17;7.20;99.90
60234;DHT22;49514;43.538;-5.708;2024-03-08T06:05:50;7.10;99.90
60234;DHT22;49514;43.538;-5.708;2024-03-08T06:08:16;7.10;99.90
60234;DHT22;49514;43.538;-5.708;2024-03-08T06:10:43;7.00;99.90
60234;DHT22;49514;43.538;-5.708;2024-03-08T06:13:09;7.10;99.90
60234;DHT22;49514;43.538;-5.708;2024-03-08T06:15:38;7.10;99.90
60234;DHT22;49514;43.538;-5.708;2024-03-08T06:18:04;7.10;99.90
60234;DHT22;49514;43.538;-5.708;2024-03-08T06:20:32;7.10;99.90
60234;DHT22;49514;43.538;-5.708;2024-03-08T06:22:58;7.10;99.90
60234;DHT22;49514;43.538;-5.708;2024-03-08T06:25:25;7.00;99.90
60234;DHT22;49514;43.538;-5.708;2024-03-08T06:27:52;6.90;99.90
60234;DHT22;49514;43.538;-5.708;2024-03-08T06:30:19;6.90;99.90
60234;DHT22;49514;43.538;-5.708;2024-03-08T06:32:46;6.80;99.90
60234;DHT22;49514;43.538;-5.708;2024-03-08T06:35:12;6.80;99.90
60234;DHT22;49514;43.538;-5.708;2024-03-08T06:37:42;6.70;99.90
60234;DHT22;49514;43.538;-5.708;2024-03-08T06:40:10;6.70;99.90
60234;DHT22;49514;43.538;-5.708;2024-03-08T06:42:40;6.70;99.90
60234;DHT22;49514;43.538;-5.708;2024-03-08T06:45:07;6.60;99.90
60234;DHT22;49514;43.538;-5.708;2024-03-08T06:47:35;6.60;99.90
60234;DHT22;49514;43.538;-5.708;2024-03-08T06:50:02;6.60;99.90
60234;DHT22;49514;43.538;-5.708;2024-03-08T06:52:30;6.60;99.90
60234;DHT22;49514;43.538;-5.708;2024-03-08T06:54:56;6.60;99.90
60234;DHT22;49514;43.538;-5.708;2024-03-08T06:57:23;6.60;99.90
60234;DHT22;49514;43.538;-5.708;2024-03-08T06:59:50;6.60;99.90
60234;DHT22;49514;43.538;-5.708;2024-03-08T07:02:18;6.60;99.90
60234;DHT22;49514;43.538;-5.708;2024-03-08T07:04:45;6.60;99.90
60234;DHT22;49514;43.538;-5.708;2024-03-08T07:07:11;6.70;99.90
60234;DHT22;49514;43.538;-5.708;2024-03-08T07:09:38;6.70;99.90
60234;DHT22;49514;43.538;-5.708;2024-03-08T07:12:05;6.70;99.90
60234;DHT22;49514;43.538;-5.708;2024-03-08T07:14:32;6.70;99.90
60234;DHT22;49514;43.538;-5.708;2024-03-08T07:16:59;6.80;99.90
60234;DHT22;49514;43.538;-5.708;2024-03-08T07:19:25;6.80;99.90
60234;DHT22;49514;43.538;-5.708;2024-03-08T07:21:52;6.90;99.90
60234;DHT22;49514;43.538;-5.708;2024-03-08T07:24:19;6.90;99.90
60234;DHT22;49514;43.538;-5.708;2024-03-08T07:26:54;7.00;99.90
60234;DHT22;49514;43.538;-5.708;2024-03-08T07:29:22;7.10;99.90
60234;DHT22;49514;43.538;-5.708;2024-03-08T07:31:49;7.10;99.90
60234;DHT22;49514;43.538;-5.708;2024-03-08T07:34:24;7.20;99.90
60234;DHT22;49514;43.538;-5.708;2024-03-08T07:36:51;7.20;99.90
60234;DHT22;49514;43.538;-5.708;2024-03-08T07:39:18;7.30;99.90
60234;DHT22;49514;43.538;-5.708;2024-03-08T07:41:45;7.30;99.90
60234;DHT22;49514;43.538;-5.708;2024-03-08T07:44:11;7.40;99.90
60234;DHT22;49514;43.538;-5.708;2024-03-08T07:46:40;7.40;99.90
60234;DHT22;49514;43.538;-5.708;2024-03-08T07:49:07;7.50;99.90
60234;DHT22;49514;43.538;-5.708;2024-03-08T07:51:38;7.50;99.90
60234;DHT22;49514;43.538;-5.708;2024-03-08T07:54:05;7.60;99.90
60234;DHT22;49514;43.538;-5.708;2024-03-08T07:56:31;7.60;99.90
60234;DHT22;49514;43.538;-5.708;2024-03-08T07:58:58;7.70;99.90
60234;DHT22;49514;43.538;-5.708;2024-03-08T08:01:25;7.80;99.90
60234;DHT22;49514;43.538;-5.708;2024-03-08T08:03:51;7.90;99.90
60234;DHT22;49514;43.538;-5.708;2024-03-08T08:06:18;8.00;99.90
60234;DHT22;49514;43.538;-5.708;2024-03-08T08:09:04;8.20;99.90
60234;DHT22;49514;43.538;-5.708;2024-03-08T08:11:31;8.30;99.90
60234;DHT22;49514;43.538;-5.708;2024-03-08T08:13:59;8.60;99.90
60234;DHT22;49514;43.538;-5.708;2024-03-08T08:16:25;8.80;99.90
60234;DHT22;49514;43.538;-5.708;2024-03-08T08:18:52;9.10;99.90
60234;DHT22;49514;43.538;-5.708;2024-03-08T08:21:19;9.30;99.90
60234;DHT22;49514;43.538;-5.708;2024-03-08T08:23:45;9.50;99.90
60234;DHT22;49514;43.538;-5.708;2024-03-08T08:26:12;9.60;99.90
60234;DHT22;49514;43.538;-5.708;2024-03-08T08:28:39;9.70;99.90
60234;DHT22;49514;43.538;-5.708;2024-03-08T08:31:07;9.90;99.90
60234;DHT22;49514;43.538;-5.708;2024-03-08T08:33:35;9.90;99.90
60234;DHT22;49514;43.538;-5.708;2024-03-08T08:36:03;10.00;99.90
60234;DHT22;49514;43.538;-5.708;2024-03-08T08:38:29;10.10;99.90
60234;DHT22;49514;43.538;-5.708;2024-03-08T08:43:23;10.60;99.90
60234;DHT22;49514;43.538;-5.708;2024-03-08T08:55:43;11.70;99.90
60234;DHT22;49514;43.538;-5.708;2024-03-08T08:58:09;11.80;99.90
60234;DHT22;49514;43.538;-5.708;2024-03-08T09:00:37;11.90;99.90
60234;DHT22;49514;43.538;-5.708;2024-03-08T09:03:04;12.10;99.90
60234;DHT22;49514;43.538;-5.708;2024-03-08T09:05:33;12.20;99.90
60234;DHT22;49514;43.538;-5.708;2024-03-08T09:08:00;12.30;99.90
60234;DHT22;49514;43.538;-5.708;2024-03-08T09:10:27;12.50;99.90
60234;DHT22;49514;43.538;-5.708;2024-03-08T09:12:54;12.50;99.90
60234;DHT22;49514;43.538;-5.708;2024-03-08T09:15:21;12.70;99.90
60234;DHT22;49514;43.538;-5.708;2024-03-08T09:17:47;12.80;99.90
60234;DHT22;49514;43.538;-5.708;2024-03-08T09:22:44;13.10;99.90
60234;DHT22;49514;43.538;-5.708;2024-03-08T09:25:10;13.20;99.90
60234;DHT22;49514;43.538;-5.708;2024-03-08T09:27:37;13.30;99.90
60234;DHT22;49514;43.538;-5.708;2024-03-08T09:30:06;13.40;99.90
60234;DHT22;49514;43.538;-5.708;2024-03-08T09:32:33;13.50;99.90
60234;DHT22;49514;43.538;-5.708;2024-03-08T09:34:59;13.60;99.90
60234;DHT22;49514;43.538;-5.708;2024-03-08T09:37:27;13.70;99.90
60234;DHT22;49514;43.538;-5.708;2024-03-08T09:39:53;13.80;99.90
60234;DHT22;49514;43.538;-5.708;2024-03-08T09:42:20;13.90;99.90
60234;DHT22;49514;43.538;-5.708;2024-03-08T09:44:46;14.00;99.90
60234;DHT22;49514;43.538;-5.708;2024-03-08T09:47:13;14.00;99.90
60234;DHT22;49514;43.538;-5.708;2024-03-08T09:49:40;13.90;99.90
60234;DHT22;49514;43.538;-5.708;2024-03-08T09:52:07;13.90;99.80
60234;DHT22;49514;43.538;-5.708;2024-03-08T09:54:34;13.90;98.70
60234;DHT22;49514;43.538;-5.708;2024-03-08T09:57:01;13.80;99.80
60234;DHT22;49514;43.538;-5.708;2024-03-08T09:59:30;13.80;99.40
60234;DHT22;49514;43.538;-5.708;2024-03-08T10:02:02;13.90;99.90
60234;DHT22;49514;43.538;-5.708;2024-03-08T10:04:29;14.00;99.90
60234;DHT22;49514;43.538;-5.708;2024-03-08T10:07:00;14.20;99.90
60234;DHT22;49514;43.538;-5.708;2024-03-08T10:09:27;14.50;99.90
60234;DHT22;49514;43.538;-5.708;2024-03-08T10:14:21;15.30;99.90
60234;DHT22;49514;43.538;-5.708;2024-03-08T10:16:48;15.60;99.90
60234;DHT22;49514;43.538;-5.708;2024-03-08T10:19:15;15.50;96.80
60234;DHT22;49514;43.538;-5.708;2024-03-08T10:21:48;15.60;95.60
60234;DHT22;49514;43.538;-5.708;2024-03-08T10:24:15;15.40;94.90
60234;DHT22;49514;43.538;-5.708;2024-03-08T10:26:41;15.10;95.40
60234;DHT22;49514;43.538;-5.708;2024-03-08T10:29:10;15.00;95.80
60234;DHT22;49514;43.538;-5.708;2024-03-08T10:31:44;14.90;95.90
60234;DHT22;49514;43.538;-5.708;2024-03-08T10:34:11;14.80;96.50
60234;DHT22;49514;43.538;-5.708;2024-03-08T10:36:37;14.80;97.00
60234;DHT22;49514;43.538;-5.708;2024-03-08T10:39:12;14.70;97.10
60234;DHT22;49514;43.538;-5.708;2024-03-08T10:41:41;14.50;96.10
60234;DHT22;49514;43.538;-5.708;2024-03-08T10:44:11;14.40;95.90
60234;DHT22;49514;43.538;-5.708;2024-03-08T10:49:24;14.00;95.70
60234;DHT22;49514;43.538;-5.708;2024-03-08T10:51:51;13.90;95.90
60234;DHT22;49514;43.538;-5.708;2024-03-08T10:54:19;13.80;96.90
60234;DHT22;49514;43.538;-5.708;2024-03-08T10:56:47;13.60;96.40
60234;DHT22;49514;43.538;-5.708;2024-03-08T10:59:15;13.60;97.90
60234;DHT22;49514;43.538;-5.708;2024-03-08T11:01:43;13.50;98.80
60234;DHT22;49514;43.538;-5.708;2024-03-08T11:04:09;13.40;98.10
60234;DHT22;49514;43.538;-5.708;2024-03-08T11:09:03;13.20;99.90
60234;DHT22;49514;43.538;-5.708;2024-03-08T11:11:33;13.10;99.90
60234;DHT22;49514;43.538;-5.708;2024-03-08T11:14:01;12.90;99.90
60234;DHT22;49514;43.538;-5.708;2024-03-08T11:18:55;12.50;99.90
60234;DHT22;49514;43.538;-5.708;2024-03-08T11:21:26;12.40;99.90
60234;DHT22;49514;43.538;-5.708;2024-03-08T11:24:12;12.20;99.90
60234;DHT22;49514;43.538;-5.708;2024-03-08T11:31:51;11.70;99.90
60234;DHT22;49514;43.538;-5.708;2024-03-08T11:34:19;11.60;99.90
60234;DHT22;49514;43.538;-5.708;2024-03-08T11:36:48;11.50;99.90
60234;DHT22;49514;43.538;-5.708;2024-03-08T11:39:16;11.40;99.90
60234;DHT22;49514;43.538;-5.708;2024-03-08T11:46:42;11.10;99.90
60234;DHT22;49514;43.538;-5.708;2024-03-08T11:49:13;11.20;99.90
60234;DHT22;49514;43.538;-5.708;2024-03-08T11:51:41;11.20;99.90
60234;DHT22;49514;43.538;-5.708;2024-03-08T11:54:12;11.30;99.90
60234;DHT22;49514;43.538;-5.708;2024-03-08T11:56:41;11.20;99.90
60234;DHT22;49514;43.538;-5.708;2024-03-08T11:59:11;11.20;99.90
60234;DHT22;49514;43.538;-5.708;2024-03-08T12:01:39;11.30;99.90
60234;DHT22;49514;43.538;-5.708;2024-03-08T12:04:05;11.40;99.90
60234;DHT22;49514;43.538;-5.708;2024-03-08T12:06:40;11.40;99.90
60234;DHT22;49514;43.538;-5.708;2024-03-08T12:09:13;11.50;99.90
60234;DHT22;49514;43.538;-5.708;2024-03-08T12:11:41;11.60;99.90
60234;DHT22;49514;43.538;-5.708;2024-03-08T12:16:37;11.70;99.90
60234;DHT22;49514;43.538;-5.708;2024-03-08T12:19:04;11.70;99.90
60234;DHT22;49514;43.538;-5.708;2024-03-08T12:21:31;11.80;99.90
60234;DHT22;49514;43.538;-5.708;2024-03-08T12:24:07;11.80;99.90
60234;DHT22;49514;43.538;-5.708;2024-03-08T12:26:38;12.00;99.90
60234;DHT22;49514;43.538;-5.708;2024-03-08T12:31:53;12.70;99.90
60234;DHT22;49514;43.538;-5.708;2024-03-08T12:34:20;13.00;99.90
60234;DHT22;49514;43.538;-5.708;2024-03-08T12:36:48;13.60;99.90
60234;DHT22;49514;43.538;-5.708;2024-03-08T12:39:26;14.30;99.90
60234;DHT22;49514;43.538;-5.708;2024-03-08T12:41:56;14.80;99.90
60234;DHT22;49514;43.538;-5.708;2024-03-08T12:44:26;15.30;99.90
60234;DHT22;49514;43.538;-5.708;2024-03-08T12:46:55;15.70;99.90
60234;DHT22;49514;43.538;-5.708;2024-03-08T12:49:21;15.70;99.90
60234;DHT22;49514;43.538;-5.708;2024-03-08T12:51:48;15.70;99.90
60234;DHT22;49514;43.538;-5.708;2024-03-08T12:54:15;15.80;99.90
60234;DHT22;49514;43.538;-5.708;2024-03-08T12:56:42;15.80;99.90
60234;DHT22;49514;43.538;-5.708;2024-03-08T12:59:09;15.70;99.90
60234;DHT22;49514;43.538;-5.708;2024-03-08T13:01:36;15.40;99.90
60234;DHT22;49514;43.538;-5.708;2024-03-08T13:04:04;15.00;99.90
60234;DHT22;49514;43.538;-5.708;2024-03-08T13:06:33;14.50;99.90
60234;DHT22;49514;43.538;-5.708;2024-03-08T13:08:59;14.40;99.90
60234;DHT22;49514;43.538;-5.708;2024-03-08T13:11:32;14.40;99.90
60234;DHT22;49514;43.538;-5.708;2024-03-08T13:14:05;14.40;99.90
60234;DHT22;49514;43.538;-5.708;2024-03-08T13:16:32;14.30;99.90
60234;DHT22;49514;43.538;-5.708;2024-03-08T13:19:01;14.30;99.90
60234;DHT22;49514;43.538;-5.708;2024-03-08T13:21:27;14.20;99.90
60234;DHT22;49514;43.538;-5.708;2024-03-08T13:23:56;14.10;99.90
60234;DHT22;49514;43.538;-5.708;2024-03-08T13:26:24;14.10;99.90
60234;DHT22;49514;43.538;-5.708;2024-03-08T13:28:55;14.10;99.90
60234;DHT22;49514;43.538;-5.708;2024-03-08T13:31:23;14.20;99.90
60234;DHT22;49514;43.538;-5.708;2024-03-08T13:33:49;14.30;99.90
60234;DHT22;49514;43.538;-5.708;2024-03-08T13:36:19;14.60;99.90
60234;DHT22;49514;43.538;-5.708;2024-03-08T13:38:48;15.10;99.90
60234;DHT22;49514;43.538;-5.708;2024-03-08T13:41:15;15.20;99.90
60234;DHT22;49514;43.538;-5.708;2024-03-08T13:43:46;15.40;99.90
60234;DHT22;49514;43.538;-5.708;2024-03-08T13:46:13;15.60;99.90
60234;DHT22;49514;43.538;-5.708;2024-03-08T13:48:40;15.40;99.90
60234;DHT22;49514;43.538;-5.708;2024-03-08T13:51:07;15.10;99.90
60234;DHT22;49514;43.538;-5.708;2024-03-08T13:53:38;14.90;99.90
60234;DHT22;49514;43.538;-5.708;2024-03-08T13:56:07;14.70;99.90
60234;DHT22;49514;43.538;-5.708;2024-03-08T13:58:37;14.60;99.90
60234;DHT22;49514;43.538;-5.708;2024-03-08T14:01:03;14.80;99.90
60234;DHT22;49514;43.538;-5.708;2024-03-08T14:03:32;15.30;99.90
60234;DHT22;49514;43.538;-5.708;2024-03-08T14:06:00;15.90;99.90
60234;DHT22;49514;43.538;-5.708;2024-03-08T14:08:30;17.50;99.90
60234;DHT22;49514;43.538;-5.708;2024-03-08T14:10:59;17.40;99.90
60234;DHT22;49514;43.538;-5.708;2024-03-08T14:15:55;19.80;99.90
60234;DHT22;49514;43.538;-5.708;2024-03-08T14:18:22;20.90;99.90
60234;DHT22;49514;43.538;-5.708;2024-03-08T14:20:49;22.40;99.90
60234;DHT22;49514;43.538;-5.708;2024-03-08T14:23:17;23.00;99.90
60234;DHT22;49514;43.538;-5.708;2024-03-08T14:25:44;23.10;99.90
60234;DHT22;49514;43.538;-5.708;2024-03-08T14:28:10;23.60;99.90
60234;DHT22;49514;43.538;-5.708;2024-03-08T14:30:38;23.90;99.90
60234;DHT22;49514;43.538;-5.708;2024-03-08T14:35:38;25.80;99.90
60234;DHT22;49514;43.538;-5.708;2024-03-08T14:38:05;26.20;93.60
60234;DHT22;49514;43.538;-5.708;2024-03-08T14:40:35;25.30;91.70
60234;DHT22;49514;43.538;-5.708;2024-03-08T14:43:03;24.30;90.10
60234;DHT22;49514;43.538;-5.708;2024-03-08T14:45:31;23.60;89.80
60234;DHT22;49514;43.538;-5.708;2024-03-08T14:47:58;22.80;90.10
60234;DHT22;49514;43.538;-5.708;2024-03-08T14:50:26;22.30;91.00
60234;DHT22;49514;43.538;-5.708;2024-03-08T14:52:53;22.80;93.10
60234;DHT22;49514;43.538;-5.708;2024-03-08T14:55:20;24.20;91.90
60234;DHT22;49514;43.538;-5.708;2024-03-08T14:57:50;25.10;90.80
60234;DHT22;49514;43.538;-5.708;2024-03-08T15:00:19;25.40;87.60
60234;DHT22;49514;43.538;-5.708;2024-03-08T15:03:15;25.40;80.80
60234;DHT22;49514;43.538;-5.708;2024-03-08T15:05:43;24.80;82.90
60234;DHT22;49514;43.538;-5.708;2024-03-08T15:08:13;24.80;83.20
60234;DHT22;49514;43.538;-5.708;2024-03-08T15:10:46;24.70;83.60
60234;DHT22;49514;43.538;-5.708;2024-03-08T15:13:14;25.10;82.70
60234;DHT22;49514;43.538;-5.708;2024-03-08T15:15:46;26.00;82.60
60234;DHT22;49514;43.538;-5.708;2024-03-08T15:18:17;26.10;74.60
60234;DHT22;49514;43.538;-5.708;2024-03-08T15:20:44;25.80;73.50
60234;DHT22;49514;43.538;-5.708;2024-03-08T15:23:13;25.80;75.50
60234;DHT22;49514;43.538;-5.708;2024-03-08T15:25:40;25.50;75.20
60234;DHT22;49514;43.538;-5.708;2024-03-08T15:28:08;25.10;74.40
60234;DHT22;49514;43.538;-5.708;2024-03-08T15:30:41;24.60;75.40
60234;DHT22;49514;43.538;-5.708;2024-03-08T15:33:13;23.70;75.70
60234;DHT22;49514;43.538;-5.708;2024-03-08T15:35:41;23.10;76.50
60234;DHT22;49514;43.538;-5.708;2024-03-08T15:38:08;22.60;76.80
60234;DHT22;49514;43.538;-5.708;2024-03-08T15:40:34;21.90;78.70
60234;DHT22;49514;43.538;-5.708;2024-03-08T15:43:01;21.40;81.00
60234;DHT22;49514;43.538;-5.708;2024-03-08T15:45:28;21.10;83.70
60234;DHT22;49514;43.538;-5.708;2024-03-08T15:47:55;20.40;87.40
60234;DHT22;49514;43.538;-5.708;2024-03-08T15:50:24;20.00;88.30
60234;DHT22;49514;43.538;-5.708;2024-03-08T15:52:51;19.50;89.50
60234;DHT22;49514;43.538;-5.708;2024-03-08T15:55:20;19.30;89.20
60234;DHT22;49514;43.538;-5.708;2024-03-08T15:57:51;19.30;89.30
60234;DHT22;49514;43.538;-5.708;2024-03-08T16:00:19;19.10;90.10
60234;DHT22;49514;43.538;-5.708;2024-03-08T16:03:15;19.00;90.20
60234;DHT22;49514;43.538;-5.708;2024-03-08T16:05:43;19.20;90.50
60234;DHT22;49514;43.538;-5.708;2024-03-08T16:08:13;19.40;89.50
60234;DHT22;49514;43.538;-5.708;2024-03-08T16:10:45;19.40;88.80